sensor_id;sensor_type;location;lat;lon;timestamp;pressure;altitude;pressure_sealevel;temperature;humidity
19259;BME280;9763;48.780;9.212;2023-12-20T00:03:19;98404.41;;;9.36;86.04
19259;BME280;9763;48.780;9.212;2023-12-20T00:06:45;98380.22;;;9.34;86.78
19259;BME280;9763;48.780;9.212;2023-12-20T00:10:10;98388.94;;;9.33;86.57
19259;BME280;9763;48.780;9.212;2023-12-20T00:13:37;98382.72;;;9.35;86.70
19259;BME280;9763;48.780;9.212;2023-12-20T00:17:01;98383.38;;;9.39;86.92
19259;BME280;9763;48.780;9.212;2023-12-20T00:20:25;98382.16;;;9.45;86.85
19259;BME280;9763;48.780;9.212;2023-12-20T00:23:50;98385.44;;;9.48;86.56
19259;BME280;9763;48.780;9.212;2023-12-20T00:27:14;98375.09;;;9.47;86.47
19259;BME280;9763;48.780;9.212;2023-12-20T00:30:38;98376.31;;;9.41;86.42
19259;BME280;9763;48.780;9.212;2023-12-20T00:34:02;98375.56;;;9.39;86.08
19259;BME280;9763;48.780;9.212;2023-12-20T00:37:26;98365.16;;;9.39;86.75
19259;BME280;9763;48.780;9.212;2023-12-20T00:40:51;98364.50;;;9.35;85.79
19259;BME280;9763;48.780;9.212;2023-12-20T00:44:15;98366.53;;;9.30;86.42
19259;BME280;9763;48.780;9.212;2023-12-20T00:47:39;98365.97;;;9.25;86.32
19259;BME280;9763;48.780;9.212;2023-12-20T00:51:04;98371.38;;;9.22;86.07
19259;BME280;9763;48.780;9.212;2023-12-20T00:54:28;98366.34;;;9.19;85.85
19259;BME280;9763;48.780;9.212;2023-12-20T00:57:54;98362.25;;;9.15;86.25
19259;BME280;9763;48.780;9.212;2023-12-20T01:01:19;98361.50;;;9.13;85.73
19259;BME280;9763;48.780;9.212;2023-12-20T01:04:43;98357.31;;;9.11;85.84
19259;BME280;9763;48.780;9.212;2023-12-20T01:08:07;98362.53;;;9.11;86.15
19259;BME280;9763;48.780;9.212;2023-12-20T01:11:31;98370.34;;;9.11;85.71
19259;BME280;9763;48.780;9.212;2023-12-20T01:14:56;98375.63;;;9.09;85.50
19259;BME280;9763;48.780;9.212;2023-12-20T01:18:21;98377.47;;;9.07;85.37
19259;BME280;9763;48.780;9.212;2023-12-20T01:21:45;98376.94;;;9.02;85.49
19259;BME280;9763;48.780;9.212;2023-12-20T01:25:10;98386.59;;;9.00;86.19
19259;BME280;9763;48.780;9.212;2023-12-20T01:28:34;98371.25;;;8.95;86.00
19259;BME280;9763;48.780;9.212;2023-12-20T01:31:59;98379.53;;;9.02;85.55
19259;BME280;9763;48.780;9.212;2023-12-20T01:35:24;98392.81;;;8.97;85.88
19259;BME280;9763;48.780;9.212;2023-12-20T01:38:48;98392.06;;;8.95;85.71
19259;BME280;9763;48.780;9.212;2023-12-20T01:42:13;98392.91;;;8.96;86.36
19259;BME280;9763;48.780;9.212;2023-12-20T01:45:36;98397.09;;;8.98;86.32
19259;BME280;9763;48.780;9.212;2023-12-20T01:49:02;98392.63;;;9.00;85.51
19259;BME280;9763;48.780;9.212;2023-12-20T01:52:27;98399.69;;;8.98;85.51
19259;BME280;9763;48.780;9.212;2023-12-20T01:55:54;98400.63;;;8.97;85.41
19259;BME280;9763;48.780;9.212;2023-12-20T01:59:20;98393.75;;;8.96;85.28
19259;BME280;9763;48.780;9.212;2023-12-20T02:02:45;98389.47;;;8.95;85.33
19259;BME280;9763;48.780;9.212;2023-12-20T02:06:11;98391.06;;;8.98;85.43
19259;BME280;9763;48.780;9.212;2023-12-20T02:09:35;98390.78;;;9.02;85.44
19259;BME280;9763;48.780;9.212;2023-12-20T02:13:00;98386.34;;;9.05;85.88
19259;BME280;9763;48.780;9.212;2023-12-20T02:16:25;98375.81;;;9.06;85.07
19259;BME280;9763;48.780;9.212;2023-12-20T02:19:50;98384.56;;;9.05;85.31
19259;BME280;9763;48.780;9.212;2023-12-20T02:23:15;98388.09;;;9.04;84.76
19259;BME280;9763;48.780;9.212;2023-12-20T02:26:39;98393.41;;;9.02;84.92
19259;BME280;9763;48.780;9.212;2023-12-20T02:30:09;98384.84;;;9.00;85.63
19259;BME280;9763;48.780;9.212;2023-12-20T02:33:34;98389.03;;;9.03;85.84
19259;BME280;9763;48.780;9.212;2023-12-20T02:36:58;98382.81;;;9.06;85.21
19259;BME280;9763;48.780;9.212;2023-12-20T02:40:23;98397.38;;;9.08;85.81
19259;BME280;9763;48.780;9.212;2023-12-20T02:43:48;98400.81;;;9.09;85.68
19259;BME280;9763;48.780;9.212;2023-12-20T02:47:11;98398.22;;;9.09;85.41
19259;BME280;9763;48.780;9.212;2023-12-20T02:50:35;98398.22;;;9.09;85.40
19259;BME280;9763;48.780;9.212;2023-12-20T02:53:59;98395.81;;;9.06;84.87
19259;BME280;9763;48.780;9.212;2023-12-20T02:57:25;98389.78;;;9.05;84.73
19259;BME280;9763;48.780;9.212;2023-12-20T03:00:48;98400.19;;;9.05;85.51
19259;BME280;9763;48.780;9.212;2023-12-20T03:04:13;98398.50;;;9.04;85.21
19259;BME280;9763;48.780;9.212;2023-12-20T03:07:37;98397.84;;;9.00;85.56
19259;BME280;9763;48.780;9.212;2023-12-20T03:11:01;98388.44;;;8.98;85.73
19259;BME280;9763;48.780;9.212;2023-12-20T03:14:29;98401.28;;;9.01;85.58
19259;BME280;9763;48.780;9.212;2023-12-20T03:17:53;98406.59;;;8.99;85.12
19259;BME280;9763;48.780;9.212;2023-12-20T03:21:18;98411.22;;;8.94;85.07
19259;BME280;9763;48.780;9.212;2023-12-20T03:24:45;98416.53;;;8.93;84.98
19259;BME280;9763;48.780;9.212;2023-12-20T03:28:08;98408.72;;;8.93;85.82
19259;BME280;9763;48.780;9.212;2023-12-20T03:31:34;98416.53;;;8.93;85.67
19259;BME280;9763;48.780;9.212;2023-12-20T03:34:59;98414.66;;;8.95;85.16
19259;BME280;9763;48.780;9.212;2023-12-20T03:38:23;98416.41;;;8.94;85.66
19259;BME280;9763;48.780;9.212;2023-12-20T03:41:47;98419.13;;;8.93;85.48
19259;BME280;9763;48.780;9.212;2023-12-20T03:45:12;98420.91;;;8.92;85.64
19259;BME280;9763;48.780;9.212;2023-12-20T03:48:37;98414.25;;;8.87;84.90
19259;BME280;9763;48.780;9.212;2023-12-20T03:52:02;98425.69;;;8.84;85.53
19259;BME280;9763;48.780;9.212;2023-12-20T03:55:26;98427.72;;;8.79;85.57
19259;BME280;9763;48.780;9.212;2023-12-20T03:58:50;98431.50;;;8.74;85.15
19259;BME280;9763;48.780;9.212;2023-12-20T04:02:14;98423.22;;;8.67;85.36
19259;BME280;9763;48.780;9.212;2023-12-20T04:05:41;98427.75;;;8.63;85.66
19259;BME280;9763;48.780;9.212;2023-12-20T04:09:05;98427.94;;;8.60;85.50
19259;BME280;9763;48.780;9.212;2023-12-20T04:12:32;98440.09;;;8.60;85.72
19259;BME280;9763;48.780;9.212;2023-12-20T04:15:57;98432.47;;;8.57;85.88
19259;BME280;9763;48.780;9.212;2023-12-20T04:19:21;98421.31;;;8.55;86.15
19259;BME280;9763;48.780;9.212;2023-12-20T04:22:47;98431.72;;;8.55;86.35
19259;BME280;9763;48.780;9.212;2023-12-20T04:26:10;98449.84;;;8.56;86.36
19259;BME280;9763;48.780;9.212;2023-12-20T04:29:34;98455.13;;;8.55;86.31
19259;BME280;9763;48.780;9.212;2023-12-20T04:32:58;98453.47;;;8.54;86.04
19259;BME280;9763;48.780;9.212;2023-12-20T04:36:24;98450.78;;;8.55;85.50
19259;BME280;9763;48.780;9.212;2023-12-20T04:39:50;98457.75;;;8.55;85.63
19259;BME280;9763;48.780;9.212;2023-12-20T04:43:14;98452.53;;;8.55;85.99
19259;BME280;9763;48.780;9.212;2023-12-20T04:46:38;98466.38;;;8.55;86.07
19259;BME280;9763;48.780;9.212;2023-12-20T04:50:03;98471.66;;;8.54;85.58
19259;BME280;9763;48.780;9.212;2023-12-20T04:53:27;98467.38;;;8.53;85.66
19259;BME280;9763;48.780;9.212;2023-12-20T04:56:52;98458.59;;;8.55;85.44
19259;BME280;9763;48.780;9.212;2023-12-20T05:00:17;98460.34;;;8.55;85.63
19259;BME280;9763;48.780;9.212;2023-12-20T05:03:41;98472.44;;;8.56;86.04
19259;BME280;9763;48.780;9.212;2023-12-20T05:07:05;98476.78;;;8.55;85.72
19259;BME280;9763;48.780;9.212;2023-12-20T05:10:30;98476.03;;;8.53;85.41
19259;BME280;9763;48.780;9.212;2023-12-20T05:13:56;98476.94;;;8.52;86.18
19259;BME280;9763;48.780;9.212;2023-12-20T05:17:19;98479.63;;;8.51;85.39
19259;BME280;9763;48.780;9.212;2023-12-20T05:20:43;98483.75;;;8.55;85.42
19259;BME280;9763;48.780;9.212;2023-12-20T05:24:08;98505.41;;;8.55;85.47
19259;BME280;9763;48.780;9.212;2023-12-20T05:27:32;98494.25;;;8.53;85.45
19259;BME280;9763;48.780;9.212;2023-12-20T05:30:58;98490.78;;;8.53;85.76
19259;BME280;9763;48.780;9.212;2023-12-20T05:34:23;98496.00;;;8.53;85.53
19259;BME280;9763;48.780;9.212;2023-12-20T05:37:47;98506.31;;;8.54;85.88
19259;BME280;9763;48.780;9.212;2023-12-20T05:41:10;98514.03;;;8.56;85.80
19259;BME280;9763;48.780;9.212;2023-12-20T05:44:35;98509.69;;;8.56;85.86
19259;BME280;9763;48.780;9.212;2023-12-20T05:48:01;98511.59;;;8.53;86.07
19259;BME280;9763;48.780;9.212;2023-12-20T05:51:27;98534.09;;;8.54;86.18
19259;BME280;9763;48.780;9.212;2023-12-20T05:54:51;98535.00;;;8.53;85.72
19259;BME280;9763;48.780;9.212;2023-12-20T05:58:15;98543.75;;;8.52;85.81
19259;BME280;9763;48.780;9.212;2023-12-20T06:01:38;98540.38;;;8.50;85.69
19259;BME280;9763;48.780;9.212;2023-12-20T06:05:05;98544.66;;;8.51;85.71
19259;BME280;9763;48.780;9.212;2023-12-20T06:08:29;98545.66;;;8.48;86.27
19259;BME280;9763;48.780;9.212;2023-12-20T06:11:52;98545.75;;;8.47;85.78
19259;BME280;9763;48.780;9.212;2023-12-20T06:15:17;98550.03;;;8.48;85.93
19259;BME280;9763;48.780;9.212;2023-12-20T06:18:41;98554.38;;;8.47;85.69
19259;BME280;9763;48.780;9.212;2023-12-20T06:22:07;98543.41;;;8.42;85.75
19259;BME280;9763;48.780;9.212;2023-12-20T06:25:31;98557.75;;;8.49;86.42
19259;BME280;9763;48.780;9.212;2023-12-20T06:28:55;98557.75;;;8.49;86.01
19259;BME280;9763;48.780;9.212;2023-12-20T06:32:20;98540.28;;;8.51;85.77
19259;BME280;9763;48.780;9.212;2023-12-20T06:35:47;98544.59;;;8.52;86.04
19259;BME280;9763;48.780;9.212;2023-12-20T06:39:14;98553.31;;;8.51;86.42
19259;BME280;9763;48.780;9.212;2023-12-20T06:42:37;98565.38;;;8.52;86.66
19259;BME280;9763;48.780;9.212;2023-12-20T06:46:15;98562.72;;;8.54;86.27
19259;BME280;9763;48.780;9.212;2023-12-20T06:49:41;98575.38;;;8.60;86.26
19259;BME280;9763;48.780;9.212;2023-12-20T06:53:06;98575.22;;;8.63;85.90
19259;BME280;9763;48.780;9.212;2023-12-20T06:56:31;98576.03;;;8.63;85.71
19259;BME280;9763;48.780;9.212;2023-12-20T06:59:56;98581.84;;;8.69;86.38
19259;BME280;9763;48.780;9.212;2023-12-20T07:03:20;98591.16;;;8.73;86.30
19259;BME280;9763;48.780;9.212;2023-12-20T07:06:43;98591.91;;;8.75;86.29
19259;BME280;9763;48.780;9.212;2023-12-20T07:10:08;98595.28;;;8.77;86.21
19259;BME280;9763;48.780;9.212;2023-12-20T07:13:33;98598.63;;;8.79;86.43
19259;BME280;9763;48.780;9.212;2023-12-20T07:16:57;98605.53;;;8.80;86.33
19259;BME280;9763;48.780;9.212;2023-12-20T07:20:22;98615.25;;;8.76;86.00
19259;BME280;9763;48.780;9.212;2023-12-20T07:23:46;98618.69;;;8.77;85.84
19259;BME280;9763;48.780;9.212;2023-12-20T07:27:10;98618.94;;;8.72;86.37
19259;BME280;9763;48.780;9.212;2023-12-20T07:30:36;98639.34;;;8.80;86.50
19259;BME280;9763;48.780;9.212;2023-12-20T07:34:02;98642.69;;;8.82;86.24
19259;BME280;9763;48.780;9.212;2023-12-20T07:37:27;98640.28;;;8.79;86.23
19259;BME280;9763;48.780;9.212;2023-12-20T07:40:53;98644.03;;;8.73;86.01
19259;BME280;9763;48.780;9.212;2023-12-20T07:44:19;98656.34;;;8.70;86.64
19259;BME280;9763;48.780;9.212;2023-12-20T07:47:48;98645.59;;;8.60;86.21
19259;BME280;9763;48.780;9.212;2023-12-20T07:51:16;98657.84;;;8.58;86.29
19259;BME280;9763;48.780;9.212;2023-12-20T07:54:42;98651.91;;;8.56;86.24
19259;BME280;9763;48.780;9.212;2023-12-20T07:58:09;98640.91;;;8.51;86.31
19259;BME280;9763;48.780;9.212;2023-12-20T08:01:42;98647.44;;;8.42;85.99
19259;BME280;9763;48.780;9.212;2023-12-20T08:05:08;98654.47;;;8.40;86.60
19259;BME280;9763;48.780;9.212;2023-12-20T08:08:34;98640.84;;;8.35;86.15
19259;BME280;9763;48.780;9.212;2023-12-20T08:11:59;98642.53;;;8.36;85.82
19259;BME280;9763;48.780;9.212;2023-12-20T08:15:27;98666.19;;;8.32;85.96
19259;BME280;9763;48.780;9.212;2023-12-20T08:18:52;98669.91;;;8.26;86.04
19259;BME280;9763;48.780;9.212;2023-12-20T08:22:18;98665.03;;;8.20;85.55
19259;BME280;9763;48.780;9.212;2023-12-20T08:25:43;98685.84;;;8.20;86.26
19259;BME280;9763;48.780;9.212;2023-12-20T08:29:07;98677.13;;;8.21;86.73
19259;BME280;9763;48.780;9.212;2023-12-20T08:32:32;98678.63;;;8.25;86.36
19259;BME280;9763;48.780;9.212;2023-12-20T08:35:58;98681.91;;;8.28;87.03
19259;BME280;9763;48.780;9.212;2023-12-20T08:39:29;98700.03;;;8.30;86.70
19259;BME280;9763;48.780;9.212;2023-12-20T08:42:58;98705.94;;;8.34;86.39
19259;BME280;9763;48.780;9.212;2023-12-20T08:46:25;98699.81;;;8.35;86.39
19259;BME280;9763;48.780;9.212;2023-12-20T08:49:49;98706.94;;;8.31;86.35
19259;BME280;9763;48.780;9.212;2023-12-20T08:53:14;98707.16;;;8.26;86.28
19259;BME280;9763;48.780;9.212;2023-12-20T08:56:41;98719.84;;;8.15;85.67
19259;BME280;9763;48.780;9.212;2023-12-20T09:00:08;98710.69;;;8.08;85.40
19259;BME280;9763;48.780;9.212;2023-12-20T09:03:39;98692.28;;;7.95;85.79
19259;BME280;9763;48.780;9.212;2023-12-20T09:07:04;98703.72;;;7.91;85.86
19259;BME280;9763;48.780;9.212;2023-12-20T09:10:28;98702.19;;;7.87;85.60
19259;BME280;9763;48.780;9.212;2023-12-20T09:13:54;98702.44;;;7.83;86.21
19259;BME280;9763;48.780;9.212;2023-12-20T09:17:19;98707.69;;;7.81;85.90
19259;BME280;9763;48.780;9.212;2023-12-20T09:20:43;98699.97;;;7.80;85.70
19259;BME280;9763;48.780;9.212;2023-12-20T09:24:09;98699.19;;;7.78;86.17
19259;BME280;9763;48.780;9.212;2023-12-20T09:27:34;98702.78;;;7.75;86.30
19259;BME280;9763;48.780;9.212;2023-12-20T09:30:59;98709.00;;;7.73;86.48
19259;BME280;9763;48.780;9.212;2023-12-20T09:34:24;98706.41;;;7.73;86.22
19259;BME280;9763;48.780;9.212;2023-12-20T09:37:48;98703.88;;;7.71;86.19
19259;BME280;9763;48.780;9.212;2023-12-20T09:41:12;98710.88;;;7.69;86.26
19259;BME280;9763;48.780;9.212;2023-12-20T09:44:36;98712.66;;;7.69;86.47
19259;BME280;9763;48.780;9.212;2023-12-20T09:48:06;98714.41;;;7.68;86.09
19259;BME280;9763;48.780;9.212;2023-12-20T09:51:31;98715.25;;;7.69;86.71
19259;BME280;9763;48.780;9.212;2023-12-20T09:54:56;98711.72;;;7.70;86.79
19259;BME280;9763;48.780;9.212;2023-12-20T09:58:20;98723.75;;;7.72;86.69
19259;BME280;9763;48.780;9.212;2023-12-20T10:01:44;98711.66;;;7.71;86.32
19259;BME280;9763;48.780;9.212;2023-12-20T10:05:17;98720.19;;;7.73;86.91
19259;BME280;9763;48.780;9.212;2023-12-20T10:08:43;98706.28;;;7.74;86.81
19259;BME280;9763;48.780;9.212;2023-12-20T10:12:07;98718.31;;;7.77;86.64
19259;BME280;9763;48.780;9.212;2023-12-20T10:15:32;98721.53;;;7.82;87.17
19259;BME280;9763;48.780;9.212;2023-12-20T10:18:57;98724.38;;;7.94;86.92
19259;BME280;9763;48.780;9.212;2023-12-20T10:22:23;98707.06;;;8.11;88.06
19259;BME280;9763;48.780;9.212;2023-12-20T10:25:56;98706.03;;;8.32;88.85
19259;BME280;9763;48.780;9.212;2023-12-20T10:29:20;98695.38;;;8.54;88.33
19259;BME280;9763;48.780;9.212;2023-12-20T10:32:44;98688.34;;;8.72;88.44
19259;BME280;9763;48.780;9.212;2023-12-20T10:36:09;98678.66;;;8.91;88.82
19259;BME280;9763;48.780;9.212;2023-12-20T10:39:38;98679.06;;;8.99;86.71
19259;BME280;9763;48.780;9.212;2023-12-20T10:43:03;98683.59;;;9.11;85.94
19259;BME280;9763;48.780;9.212;2023-12-20T10:46:28;98693.50;;;9.20;86.82
19259;BME280;9763;48.780;9.212;2023-12-20T10:49:54;98684.38;;;9.29;85.49
19259;BME280;9763;48.780;9.212;2023-12-20T10:53:18;98688.38;;;9.34;84.89
19259;BME280;9763;48.780;9.212;2023-12-20T10:56:44;98686.69;;;9.33;84.79
19259;BME280;9763;48.780;9.212;2023-12-20T11:00:14;98673.94;;;9.29;84.52
19259;BME280;9763;48.780;9.212;2023-12-20T11:03:44;98679.31;;;9.26;84.13
19259;BME280;9763;48.780;9.212;2023-12-20T11:07:21;98682.84;;;9.25;84.51
19259;BME280;9763;48.780;9.212;2023-12-20T11:10:56;98668.91;;;9.26;84.68
19259;BME280;9763;48.780;9.212;2023-12-20T11:14:29;98671.91;;;9.34;85.39
19259;BME280;9763;48.780;9.212;2023-12-20T11:17:56;98668.94;;;9.56;84.68
19259;BME280;9763;48.780;9.212;2023-12-20T11:21:20;98676.16;;;9.66;85.18
19259;BME280;9763;48.780;9.212;2023-12-20T11:24:45;98662.94;;;9.69;83.60
19259;BME280;9763;48.780;9.212;2023-12-20T11:28:10;98654.19;;;9.70;84.10
19259;BME280;9763;48.780;9.212;2023-12-20T11:31:41;98670.75;;;9.69;83.57
19259;BME280;9763;48.780;9.212;2023-12-20T11:35:19;98664.31;;;9.61;83.72
19259;BME280;9763;48.780;9.212;2023-12-20T11:38:56;98655.75;;;9.59;83.95
19259;BME280;9763;48.780;9.212;2023-12-20T11:42:20;98660.97;;;9.59;82.50
19259;BME280;9763;48.780;9.212;2023-12-20T11:45:49;98661.78;;;9.59;82.72
19259;BME280;9763;48.780;9.212;2023-12-20T11:49:16;98653.38;;;9.54;83.97
19259;BME280;9763;48.780;9.212;2023-12-20T11:52:41;98660.97;;;9.59;81.45
19259;BME280;9763;48.780;9.212;2023-12-20T11:56:06;98663.00;;;9.54;81.53
19259;BME280;9763;48.780;9.212;2023-12-20T11:59:31;98627.72;;;9.32;81.52
19259;BME280;9763;48.780;9.212;2023-12-20T12:02:57;98661.91;;;9.42;81.77
19259;BME280;9763;48.780;9.212;2023-12-20T12:06:24;98644.69;;;9.39;81.61
19259;BME280;9763;48.780;9.212;2023-12-20T12:09:48;98640.41;;;9.38;80.45
19259;BME280;9763;48.780;9.212;2023-12-20T12:13:12;98640.50;;;9.37;81.21
19259;BME280;9763;48.780;9.212;2023-12-20T12:16:37;98634.28;;;9.39;81.62
19259;BME280;9763;48.780;9.212;2023-12-20T12:20:04;98631.41;;;9.44;82.78
19259;BME280;9763;48.780;9.212;2023-12-20T12:23:31;98627.25;;;9.56;83.74
19259;BME280;9763;48.780;9.212;2023-12-20T12:26:57;98621.16;;;9.71;83.81
19259;BME280;9763;48.780;9.212;2023-12-20T12:30:21;98621.75;;;9.90;84.06
19259;BME280;9763;48.780;9.212;2023-12-20T12:33:46;98621.16;;;10.01;84.08
19259;BME280;9763;48.780;9.212;2023-12-20T12:37:10;98615.19;;;10.13;83.38
19259;BME280;9763;48.780;9.212;2023-12-20T12:40:36;98621.13;;;10.15;84.01
19259;BME280;9763;48.780;9.212;2023-12-20T12:44:01;98620.22;;;10.02;83.07
19259;BME280;9763;48.780;9.212;2023-12-20T12:47:39;98611.53;;;9.87;83.37
19259;BME280;9763;48.780;9.212;2023-12-20T12:51:04;98608.34;;;9.82;83.42
19259;BME280;9763;48.780;9.212;2023-12-20T12:54:29;98614.47;;;9.81;83.24
19259;BME280;9763;48.780;9.212;2023-12-20T12:57:55;98613.72;;;9.79;83.05
19259;BME280;9763;48.780;9.212;2023-12-20T13:01:19;98625.41;;;9.88;83.03
19259;BME280;9763;48.780;9.212;2023-12-20T13:04:43;98626.25;;;9.88;82.54
19259;BME280;9763;48.780;9.212;2023-12-20T13:08:08;98623.72;;;9.87;82.49
19259;BME280;9763;48.780;9.212;2023-12-20T13:11:33;98628.28;;;9.83;81.49
19259;BME280;9763;48.780;9.212;2023-12-20T13:15:00;98622.13;;;9.84;83.45
19259;BME280;9763;48.780;9.212;2023-12-20T13:18:26;98620.28;;;9.86;83.69
19259;BME280;9763;48.780;9.212;2023-12-20T13:21:50;98621.56;;;9.93;83.62
19259;BME280;9763;48.780;9.212;2023-12-20T13:25:15;98618.03;;;9.94;82.28
19259;BME280;9763;48.780;9.212;2023-12-20T13:28:39;98612.00;;;9.94;83.14
19259;BME280;9763;48.780;9.212;2023-12-20T13:32:05;98608.84;;;9.89;83.89
19259;BME280;9763;48.780;9.212;2023-12-20T13:35:29;98614.06;;;9.89;84.17
19259;BME280;9763;48.780;9.212;2023-12-20T13:38:53;98621.50;;;9.95;83.61
19259;BME280;9763;48.780;9.212;2023-12-20T13:42:17;98609.22;;;9.97;83.86
19259;BME280;9763;48.780;9.212;2023-12-20T13:45:41;98609.03;;;10.00;83.95
19259;BME280;9763;48.780;9.212;2023-12-20T13:49:07;98603.34;;;9.93;83.35
19259;BME280;9763;48.780;9.212;2023-12-20T13:52:31;98619.91;;;9.92;83.03
19259;BME280;9763;48.780;9.212;2023-12-20T13:56:00;98626.31;;;9.87;82.51
19259;BME280;9763;48.780;9.212;2023-12-20T13:59:24;98629.28;;;9.81;82.44
19259;BME280;9763;48.780;9.212;2023-12-20T14:02:48;98630.28;;;9.78;83.20
19259;BME280;9763;48.780;9.212;2023-12-20T14:06:14;98618.47;;;9.72;82.72
19259;BME280;9763;48.780;9.212;2023-12-20T14:09:39;98616.78;;;9.71;83.32
19259;BME280;9763;48.780;9.212;2023-12-20T14:13:08;98614.09;;;9.73;83.19
19259;BME280;9763;48.780;9.212;2023-12-20T14:16:32;98600.22;;;9.72;83.32
19259;BME280;9763;48.780;9.212;2023-12-20T14:19:56;98596.03;;;9.70;83.05
19259;BME280;9763;48.780;9.212;2023-12-20T14:23:22;98584.84;;;9.68;83.17
19259;BME280;9763;48.780;9.212;2023-12-20T14:26:46;98577.41;;;9.62;82.44
19259;BME280;9763;48.780;9.212;2023-12-20T14:30:11;98573.28;;;9.58;82.91
19259;BME280;9763;48.780;9.212;2023-12-20T14:33:37;98565.00;;;9.51;83.60
19259;BME280;9763;48.780;9.212;2023-12-20T14:37:02;98579.72;;;9.52;83.07
19259;BME280;9763;48.780;9.212;2023-12-20T14:40:28;98580.97;;;9.45;83.11
19259;BME280;9763;48.780;9.212;2023-12-20T14:43:52;98590.31;;;9.49;82.20
19259;BME280;9763;48.780;9.212;2023-12-20T14:47:17;98587.41;;;9.39;82.92
19259;BME280;9763;48.780;9.212;2023-12-20T14:50:41;98565.84;;;9.22;82.56
19259;BME280;9763;48.780;9.212;2023-12-20T14:54:06;98584.56;;;9.28;82.67
19259;BME280;9763;48.780;9.212;2023-12-20T14:57:33;98578.19;;;9.18;83.39
19259;BME280;9763;48.780;9.212;2023-12-20T15:00:57;98583.38;;;9.18;82.91
19259;BME280;9763;48.780;9.212;2023-12-20T15:04:21;98580.91;;;9.17;82.97
19259;BME280;9763;48.780;9.212;2023-12-20T15:07:50;98577.44;;;9.16;83.66
19259;BME280;9763;48.780;9.212;2023-12-20T15:11:15;98583.75;;;9.12;83.00
19259;BME280;9763;48.780;9.212;2023-12-20T15:14:41;98584.66;;;9.11;83.35
19259;BME280;9763;48.780;9.212;2023-12-20T15:18:05;98596.59;;;9.15;83.28
19259;BME280;9763;48.780;9.212;2023-12-20T15:21:29;98595.00;;;9.13;82.98
19259;BME280;9763;48.780;9.212;2023-12-20T15:24:55;98604.56;;;9.12;83.54
19259;BME280;9763;48.780;9.212;2023-12-20T15:28:19;98589.88;;;9.11;83.98
19259;BME280;9763;48.780;9.212;2023-12-20T15:31:46;98597.09;;;9.06;83.16
19259;BME280;9763;48.780;9.212;2023-12-20T15:35:10;98599.03;;;9.02;83.08
19259;BME280;9763;48.780;9.212;2023-12-20T15:38:35;98592.91;;;9.03;83.41
19259;BME280;9763;48.780;9.212;2023-12-20T15:41:59;98595.53;;;9.03;83.73
19259;BME280;9763;48.780;9.212;2023-12-20T15:45:23;98590.41;;;9.02;83.40
19259;BME280;9763;48.780;9.212;2023-12-20T15:48:48;98585.50;;;8.96;83.25
19259;BME280;9763;48.780;9.212;2023-12-20T15:52:14;98595.69;;;9.00;83.93
19259;BME280;9763;48.780;9.212;2023-12-20T15:55:39;98598.19;;;9.02;83.74
19259;BME280;9763;48.780;9.212;2023-12-20T15:59:05;98600.81;;;9.02;83.58
19259;BME280;9763;48.780;9.212;2023-12-20T16:02:30;98594.84;;;9.00;83.58
19259;BME280;9763;48.780;9.212;2023-12-20T16:05:55;98608.69;;;9.00;84.08
19259;BME280;9763;48.780;9.212;2023-12-20T16:09:21;98607.94;;;8.98;83.26
19259;BME280;9763;48.780;9.212;2023-12-20T16:12:45;98605.34;;;8.98;84.03
19259;BME280;9763;48.780;9.212;2023-12-20T16:16:09;98609.69;;;8.98;82.79
19259;BME280;9763;48.780;9.212;2023-12-20T16:19:34;98606.34;;;8.96;83.10
19259;BME280;9763;48.780;9.212;2023-12-20T16:22:59;98605.56;;;8.94;83.50
19259;BME280;9763;48.780;9.212;2023-12-20T16:26:23;98608.28;;;8.92;83.02
19259;BME280;9763;48.780;9.212;2023-12-20T16:29:47;98593.75;;;8.88;83.07
19259;BME280;9763;48.780;9.212;2023-12-20T16:33:11;98605.09;;;8.87;83.48
19259;BME280;9763;48.780;9.212;2023-12-20T16:36:52;98593.00;;;8.86;83.57
19259;BME280;9763;48.780;9.212;2023-12-20T16:40:19;98588.03;;;8.82;84.21
19259;BME280;9763;48.780;9.212;2023-12-20T16:43:47;98592.31;;;8.83;83.66
19259;BME280;9763;48.780;9.212;2023-12-20T16:47:11;98577.81;;;8.79;83.47
19259;BME280;9763;48.780;9.212;2023-12-20T16:50:36;98577.06;;;8.77;83.52
19259;BME280;9763;48.780;9.212;2023-12-20T16:54:00;98572.78;;;8.76;83.97
19259;BME280;9763;48.780;9.212;2023-12-20T16:57:26;98586.72;;;8.75;83.69
19259;BME280;9763;48.780;9.212;2023-12-20T17:00:51;98575.53;;;8.73;83.98
19259;BME280;9763;48.780;9.212;2023-12-20T17:04:16;98574.03;;;8.69;83.83
19259;BME280;9763;48.780;9.212;2023-12-20T17:07:40;98574.88;;;8.69;83.70
19259;BME280;9763;48.780;9.212;2023-12-20T17:11:05;98556.91;;;8.64;83.53
19259;BME280;9763;48.780;9.212;2023-12-20T17:14:30;98567.72;;;8.73;83.57
19259;BME280;9763;48.780;9.212;2023-12-20T17:17:55;98562.59;;;8.71;83.83
19259;BME280;9763;48.780;9.212;2023-12-20T17:21:19;98549.88;;;8.66;83.64
19259;BME280;9763;48.780;9.212;2023-12-20T17:24:44;98557.69;;;8.66;84.12
19259;BME280;9763;48.780;9.212;2023-12-20T17:28:08;98544.84;;;8.63;83.68
19259;BME280;9763;48.780;9.212;2023-12-20T17:31:34;98556.16;;;8.62;83.62
19259;BME280;9763;48.780;9.212;2023-12-20T17:34:59;98547.66;;;8.59;83.88
19259;BME280;9763;48.780;9.212;2023-12-20T17:38:25;98551.19;;;8.58;83.41
19259;BME280;9763;48.780;9.212;2023-12-20T17:41:49;98558.25;;;8.56;83.73
19259;BME280;9763;48.780;9.212;2023-12-20T17:45:13;98564.38;;;8.55;83.76
19259;BME280;9763;48.780;9.212;2023-12-20T17:48:38;98558.44;;;8.53;84.33
19259;BME280;9763;48.780;9.212;2023-12-20T17:52:02;98573.13;;;8.54;84.11
19259;BME280;9763;48.780;9.212;2023-12-20T17:55:29;98562.63;;;8.55;84.08
19259;BME280;9763;48.780;9.212;2023-12-20T17:58:54;98553.91;;;8.56;84.36
19259;BME280;9763;48.780;9.212;2023-12-20T18:02:18;98554.56;;;8.60;84.25
19259;BME280;9763;48.780;9.212;2023-12-20T18:05:43;98557.06;;;8.61;84.28
19259;BME280;9763;48.780;9.212;2023-12-20T18:09:07;98563.03;;;8.63;83.87
19259;BME280;9763;48.780;9.212;2023-12-20T18:12:32;98556.84;;;8.66;83.51
19259;BME280;9763;48.780;9.212;2023-12-20T18:15:55;98566.31;;;8.67;84.15
19259;BME280;9763;48.780;9.212;2023-12-20T18:19:20;98564.47;;;8.69;84.16
19259;BME280;9763;48.780;9.212;2023-12-20T18:22:45;98556.69;;;8.69;83.33
19259;BME280;9763;48.780;9.212;2023-12-20T18:26:09;98551.63;;;8.66;83.75
19259;BME280;9763;48.780;9.212;2023-12-20T18:29:33;98555.00;;;8.68;83.58
19259;BME280;9763;48.780;9.212;2023-12-20T18:32:59;98548.88;;;8.69;83.62
19259;BME280;9763;48.780;9.212;2023-12-20T18:36:23;98553.22;;;8.69;83.52
19259;BME280;9763;48.780;9.212;2023-12-20T18:39:49;98562.81;;;8.68;83.86